createdAt,value
2018-03-08T00:01:06.752Z,3.50
2018-03-08T00:03:41.196Z,3.60
2018-03-08T00:06:14.781Z,3.60
2018-03-08T00:08:48.580Z,3.60
2018-03-08T00:11:22.140Z,3.60
2018-03-08T00:13:55.760Z,3.60
2018-03-08T00:16:30.375Z,3.70
2018-03-08T00:19:04.053Z,3.60
2018-03-08T00:21:38.180Z,3.70
2018-03-08T00:24:12.714Z,3.70
2018-03-08T00:26:46.341Z,3.70
2018-03-08T00:29:20.063Z,3.70
2018-03-08T00:31:53.546Z,3.80
2018-03-08T00:34:27.240Z,3.80
2018-03-08T00:37:00.778Z,3.80
2018-03-08T00:39:34.325Z,3.90
2018-03-08T00:42:07.850Z,3.90
2018-03-08T00:44:42.168Z,4.10
2018-03-08T00:47:15.690Z,4.10
2018-03-08T00:49:49.241Z,4.00
2018-03-08T00:52:22.832Z,4.10
2018-03-08T00:54:56.414Z,3.90
2018-03-08T00:57:30.570Z,3.90
2018-03-08T01:00:04.247Z,3.70
2018-03-08T01:02:38.562Z,3.60
2018-03-08T01:05:12.132Z,3.50
2018-03-08T01:07:45.660Z,3.50
2018-03-08T01:10:19.264Z,3.40
2018-03-08T01:12:53.588Z,3.30
2018-03-08T01:15:27.303Z,3.30
2018-03-08T01:18:00.808Z,3.20
2018-03-08T01:20:34.406Z,3.20
2018-03-08T01:23:08.804Z,3.20
2018-03-08T01:25:43.118Z,3.20
2018-03-08T01:28:16.849Z,3.10
2018-03-08T01:30:50.493Z,3.10
2018-03-08T01:33:24.263Z,3.00
2018-03-08T01:35:57.802Z,3.00
2018-03-08T01:38:32.155Z,3.10
2018-03-08T01:41:06.658Z,3.10
2018-03-08T01:43:40.262Z,3.20
2018-03-08T01:46:13.848Z,3.20
2018-03-08T01:48:47.536Z,3.20
2018-03-08T01:51:21.122Z,3.20
2018-03-08T01:53:54.648Z,3.20
2018-03-08T01:56:28.170Z,3.20
2018-03-08T01:59:01.774Z,3.20
2018-03-08T02:01:35.361Z,3.10
2018-03-08T02:04:09.693Z,3.10
2018-03-08T02:06:44.004Z,2.90
2018-03-08T02:09:18.521Z,2.90
2018-03-08T02:11:52.836Z,2.90
2018-03-08T02:14:26.448Z,2.90
2018-03-08T02:17:00.085Z,3.00
2018-03-08T02:19:34.374Z,3.10
2018-03-08T02:22:08.188Z,3.10
2018-03-08T02:24:41.756Z,3.00
2018-03-08T02:27:15.405Z,3.20
2018-03-08T02:29:48.969Z,3.20
2018-03-08T02:32:22.594Z,3.40
2018-03-08T02:34:56.240Z,3.30
2018-03-08T02:37:29.825Z,3.30
2018-03-08T02:40:04.098Z,3.30
2018-03-08T02:42:37.681Z,3.30
2018-03-08T02:45:11.290Z,3.40
2018-03-08T02:47:44.840Z,3.50
2018-03-08T02:50:19.225Z,3.80
2018-03-08T02:52:52.722Z,3.70
2018-03-08T02:55:26.282Z,3.80
2018-03-08T02:57:59.854Z,3.80
2018-03-08T03:00:33.404Z,3.90
2018-03-08T03:03:07.725Z,4.10
2018-03-08T03:05:41.350Z,4.00
2018-03-08T03:08:14.925Z,3.70
2018-03-08T03:10:48.451Z,3.60
2018-03-08T03:13:22.028Z,3.30
2018-03-08T03:15:55.624Z,3.30
2018-03-08T03:18:29.912Z,3.10
2018-03-08T03:21:03.436Z,3.00
2018-03-08T03:23:37.865Z,3.40
2018-03-08T03:26:11.451Z,3.40
2018-03-08T03:28:45.037Z,3.60
2018-03-08T03:31:18.571Z,3.60
2018-03-08T03:33:52.883Z,3.40
2018-03-08T03:36:27.193Z,3.50
2018-03-08T03:39:00.768Z,3.50
2018-03-08T03:41:35.049Z,3.50
2018-03-08T03:44:08.732Z,3.50
2018-03-08T03:46:42.267Z,3.40
2018-03-08T03:49:15.821Z,3.30
2018-03-08T03:51:49.400Z,3.40
2018-03-08T03:54:22.917Z,3.50
2018-03-08T03:56:57.429Z,3.40
2018-03-08T03:59:31.752Z,3.20
2018-03-08T04:02:05.319Z,3.20
2018-03-08T04:04:39.064Z,3.00
2018-03-08T04:07:12.629Z,3.20
2018-03-08T04:09:46.207Z,3.10
2018-03-08T04:12:19.755Z,3.20
2018-03-08T04:14:53.449Z,3.10
2018-03-08T04:17:27.196Z,2.90
2018-03-08T04:20:00.741Z,2.70
2018-03-08T04:22:35.100Z,2.60
2018-03-08T04:25:08.659Z,2.60
2018-03-08T04:27:42.306Z,2.70
2018-03-08T04:30:16.975Z,2.80
2018-03-08T04:32:50.589Z,2.80
2018-03-08T04:35:24.370Z,2.80
2018-03-08T04:37:58.023Z,2.90
2018-03-08T04:40:31.662Z,3.00
2018-03-08T04:43:05.456Z,3.10
2018-03-08T04:45:39.027Z,3.20
2018-03-08T04:48:13.428Z,3.40
2018-03-08T04:50:47.145Z,3.30
2018-03-08T04:53:20.939Z,3.30
2018-03-08T04:55:55.517Z,3.30
2018-03-08T04:58:29.420Z,3.30
2018-03-08T05:01:03.989Z,3.30
2018-03-08T05:03:37.632Z,3.30
2018-03-08T05:06:11.462Z,3.20
2018-03-08T05:08:45.337Z,3.20
2018-03-08T05:11:19.098Z,3.10
2018-03-08T05:13:52.885Z,3.20
2018-03-08T05:16:26.704Z,3.20
2018-03-08T05:19:00.523Z,3.20
2018-03-08T05:21:35.132Z,3.10
2018-03-08T05:24:08.889Z,3.10
2018-03-08T05:26:42.738Z,3.00
2018-03-08T05:29:16.516Z,2.90
2018-03-08T05:31:50.282Z,2.80
2018-03-08T05:34:24.813Z,2.70
2018-03-08T05:36:58.646Z,2.70
2018-03-08T05:39:33.325Z,2.60
2018-03-08T05:42:07.141Z,2.60
2018-03-08T05:44:40.953Z,2.60
2018-03-08T05:47:14.686Z,2.60
2018-03-08T05:49:48.520Z,2.60
2018-03-08T05:52:22.260Z,2.60
2018-03-08T05:54:56.070Z,2.60
2018-03-08T05:57:29.663Z,2.70
2018-03-08T06:00:03.505Z,2.80
2018-03-08T06:02:37.172Z,2.80
2018-03-08T06:05:10.995Z,2.80
2018-03-08T06:07:44.830Z,2.90
2018-03-08T06:10:18.673Z,2.90
2018-03-08T06:12:52.433Z,2.90
2018-03-08T06:15:26.073Z,3.00
2018-03-08T06:17:59.898Z,3.00
2018-03-08T06:20:33.677Z,3.10
2018-03-08T06:23:08.308Z,3.20
2018-03-08T06:25:41.929Z,3.30
2018-03-08T06:28:15.689Z,3.30
2018-03-08T06:30:49.537Z,3.30
2018-03-08T06:33:23.420Z,3.40
2018-03-08T06:35:57.097Z,3.40
2018-03-08T06:38:30.847Z,3.40
2018-03-08T06:41:05.396Z,3.50
2018-03-08T06:43:39.189Z,3.50
2018-03-08T06:46:13.083Z,3.50
2018-03-08T06:48:46.880Z,3.50
2018-03-08T06:51:20.691Z,3.50
2018-03-08T06:53:54.289Z,3.50
2018-03-08T06:56:28.927Z,3.60
2018-03-08T06:59:02.810Z,3.50
2018-03-08T07:01:37.361Z,3.60
2018-03-08T07:04:11.158Z,3.60
2018-03-08T07:06:44.911Z,3.60
2018-03-08T07:09:18.809Z,3.60
2018-03-08T07:11:52.551Z,3.70
2018-03-08T07:14:26.330Z,3.70
2018-03-08T07:17:00.091Z,3.80
2018-03-08T07:19:33.936Z,3.70
2018-03-08T07:22:07.755Z,3.70
2018-03-08T07:24:41.567Z,3.70
2018-03-08T07:27:15.352Z,3.60
2018-03-08T07:29:49.113Z,3.60
2018-03-08T07:32:22.974Z,3.60
2018-03-08T07:34:56.755Z,3.60
2018-03-08T07:37:30.551Z,3.70
2018-03-08T07:40:04.256Z,3.70
2018-03-08T07:42:37.995Z,3.80
2018-03-08T07:45:11.528Z,4.10
2018-03-08T07:47:45.054Z,4.20
2018-03-08T07:50:18.572Z,4.30
2018-03-08T07:52:52.275Z,4.30
2018-03-08T07:55:25.871Z,4.30
2018-03-08T07:58:00.189Z,4.60
2018-03-08T08:00:33.759Z,4.60
2018-03-08T08:03:07.367Z,4.80
2018-03-08T08:05:52.817Z,4.80
2018-03-08T08:21:55.918Z,4.70
2018-03-08T08:24:29.562Z,4.80
2018-03-08T08:27:03.139Z,4.80
2018-03-08T08:29:36.858Z,5.00
2018-03-08T08:32:10.403Z,5.20
2018-03-08T08:34:43.955Z,5.40
2018-03-08T08:37:17.486Z,5.80
2018-03-08T08:39:50.996Z,6.20
2018-03-08T08:42:24.622Z,5.90
2018-03-08T08:44:58.176Z,5.60
2018-03-08T08:47:31.851Z,5.80
2018-03-08T08:50:05.429Z,5.90
2018-03-08T08:52:39.009Z,5.90
2018-03-08T08:55:12.750Z,5.60
2018-03-08T08:57:46.324Z,5.60
2018-03-08T09:00:19.852Z,5.90
2018-03-08T09:02:53.426Z,6.20
2018-03-08T09:05:27.752Z,6.20
2018-03-08T09:08:01.333Z,6.20
2018-03-08T09:10:34.870Z,6.40
2018-03-08T09:13:08.468Z,6.80
2018-03-08T09:15:42.770Z,7.10
2018-03-08T09:18:16.478Z,7.10
2018-03-08T09:20:50.125Z,7.00
2018-03-08T09:23:23.697Z,7.20
2018-03-08T09:25:57.215Z,7.00
2018-03-08T09:28:30.900Z,7.20
2018-03-08T09:31:05.294Z,7.10
2018-03-08T09:33:38.981Z,7.10
2018-03-08T09:36:12.596Z,7.50
2018-03-08T09:38:46.196Z,7.80
2018-03-08T09:41:19.783Z,7.70
2018-03-08T09:43:54.212Z,7.40
2018-03-08T09:46:28.633Z,7.50
2018-03-08T09:49:02.364Z,7.50
2018-03-08T09:51:35.908Z,7.70
2018-03-08T09:54:09.587Z,7.80
2018-03-08T09:56:43.150Z,7.90
2018-03-08T09:59:16.649Z,8.20
2018-03-08T10:01:50.197Z,8.00
2018-03-08T10:04:23.737Z,8.10
2018-03-08T10:06:57.342Z,8.50
2018-03-08T10:09:30.926Z,8.80
2018-03-08T10:12:05.260Z,8.60
2018-03-08T10:14:38.955Z,8.60
2018-03-08T10:17:12.493Z,8.50
2018-03-08T10:19:45.991Z,7.90
2018-03-08T10:22:20.282Z,8.50
2018-03-08T10:24:53.994Z,8.50
2018-03-08T10:27:27.660Z,8.30
2018-03-08T10:30:01.304Z,8.10
2018-03-08T10:32:34.812Z,8.30
2018-03-08T10:35:09.106Z,8.80
2018-03-08T10:37:42.900Z,8.70
2018-03-08T10:40:16.418Z,8.90
2018-03-08T10:42:50.738Z,8.60
2018-03-08T10:45:24.429Z,8.60
2018-03-08T10:47:57.950Z,8.90
2018-03-08T10:50:31.522Z,8.70
2018-03-08T10:53:05.060Z,8.90
2018-03-08T10:55:39.357Z,8.80
2018-03-08T10:58:13.768Z,9.00
2018-03-08T11:00:53.763Z,9.10
2018-03-08T11:03:48.094Z,9.10
2018-03-08T11:06:28.744Z,9.10
2018-03-08T11:09:02.464Z,9.10
2018-03-08T11:11:36.906Z,9.40
2018-03-08T11:14:10.625Z,9.40
2018-03-08T11:16:44.195Z,9.40
2018-03-08T11:19:17.731Z,9.10
2018-03-08T11:21:51.264Z,9.10
2018-03-08T11:24:25.626Z,9.60
2018-03-08T11:27:00.119Z,9.60
2018-03-08T11:29:33.640Z,9.60
2018-03-08T11:32:07.210Z,9.50
2018-03-08T11:34:40.745Z,9.60
2018-03-08T11:37:15.127Z,9.20
2018-03-08T11:39:48.748Z,9.20
2018-03-08T11:42:22.316Z,9.20
2018-03-08T11:44:55.859Z,9.50
2018-03-08T11:47:29.460Z,9.40
2018-03-08T11:50:02.999Z,9.30
2018-03-08T11:52:36.576Z,9.40
2018-03-08T11:55:10.166Z,9.50
2018-03-08T11:57:43.755Z,9.50
2018-03-08T12:00:17.340Z,9.90
2018-03-08T12:02:51.081Z,9.60
2018-03-08T12:05:24.623Z,9.70
2018-03-08T12:07:58.229Z,10.10
2018-03-08T12:10:32.560Z,10.50
2018-03-08T12:13:06.217Z,10.50
2018-03-08T12:15:39.793Z,10.50
2018-03-08T12:18:14.179Z,10.60
2018-03-08T12:20:48.629Z,10.70
2018-03-08T12:23:22.205Z,10.70
2018-03-08T12:25:55.723Z,10.20
2018-03-08T12:28:29.513Z,10.40
2018-03-08T12:31:03.002Z,10.60
2018-03-08T12:33:36.540Z,10.70
2018-03-08T12:36:10.129Z,10.90
2018-03-08T12:38:43.709Z,11.00
2018-03-08T12:41:17.353Z,10.70
2018-03-08T12:43:50.895Z,11.00
2018-03-08T12:46:25.318Z,10.40
2018-03-08T12:48:58.941Z,10.40
2018-03-08T12:51:32.504Z,10.60
2018-03-08T12:54:06.058Z,10.90
2018-03-08T12:56:39.589Z,11.20
2018-03-08T12:59:14.056Z,11.10
2018-03-08T13:01:47.672Z,11.10
2018-03-08T13:04:21.319Z,11.30
2018-03-08T13:06:54.804Z,11.00
2018-03-08T13:09:28.382Z,10.60
2018-03-08T13:12:01.950Z,10.60
2018-03-08T13:14:35.546Z,10.60
2018-03-08T13:17:09.176Z,10.90
2018-03-08T13:19:42.737Z,11.10
2018-03-08T13:22:16.276Z,11.20
2018-03-08T13:24:49.838Z,11.20
2018-03-08T13:27:23.453Z,11.40
2018-03-08T13:29:57.140Z,11.50
2018-03-08T13:32:31.480Z,11.80
2018-03-08T13:35:05.172Z,11.80
2018-03-08T13:37:38.717Z,11.40
2018-03-08T13:40:12.265Z,11.30
2018-03-08T13:42:45.883Z,11.30
2018-03-08T13:45:19.613Z,11.10
2018-03-08T13:47:53.152Z,11.40
2018-03-08T13:50:26.806Z,11.60
2018-03-08T13:53:00.312Z,11.30
2018-03-08T13:55:34.602Z,11.30
2018-03-08T13:58:08.278Z,11.30
2018-03-08T14:00:41.901Z,11.30
2018-03-08T14:03:16.219Z,11.60
2018-03-08T14:05:49.809Z,11.60
2018-03-08T14:08:23.286Z,11.70
2018-03-08T14:10:58.349Z,11.20
2018-03-08T14:13:32.665Z,11.40
2018-03-08T14:16:06.400Z,11.50
2018-03-08T14:18:39.942Z,11.60
2018-03-08T14:21:13.560Z,11.60
2018-03-08T14:23:47.172Z,11.70
2018-03-08T14:26:20.713Z,12.00
2018-03-08T14:28:54.354Z,12.10
2018-03-08T14:31:28.688Z,12.00
2018-03-08T14:34:03.220Z,12.10
2018-03-08T14:36:36.950Z,12.10
2018-03-08T14:39:11.232Z,12.00
2018-03-08T14:41:44.815Z,11.90
2018-03-08T14:44:18.456Z,12.00
2018-03-08T14:46:52.026Z,12.00
2018-03-08T14:49:25.556Z,12.10
2018-03-08T14:51:59.131Z,11.70
2018-03-08T14:54:32.664Z,11.40
2018-03-08T14:57:06.144Z,11.60
2018-03-08T14:59:39.732Z,11.60
2018-03-08T15:02:13.333Z,11.70
2018-03-08T15:04:46.913Z,11.70
2018-03-08T15:07:21.256Z,12.00
2018-03-08T15:09:54.963Z,12.00
2018-03-08T15:12:28.501Z,12.10
2018-03-08T15:15:02.978Z,12.20
2018-03-08T15:17:36.728Z,12.20
2018-03-08T15:20:10.343Z,12.10
2018-03-08T15:22:43.927Z,12.10
2018-03-08T15:25:17.500Z,12.20
2018-03-08T15:27:51.167Z,12.30
2018-03-08T15:30:25.603Z,12.10
2018-03-08T15:33:00.118Z,12.10
2018-03-08T15:35:33.826Z,12.10
2018-03-08T15:38:07.346Z,11.80
2018-03-08T15:40:40.861Z,12.00
2018-03-08T15:43:14.436Z,12.00
2018-03-08T15:45:48.025Z,11.80
2018-03-08T15:48:22.469Z,11.70
2018-03-08T15:50:56.038Z,11.70
2018-03-08T15:53:29.649Z,11.50
2018-03-08T15:56:04.073Z,11.00
2018-03-08T15:58:37.883Z,11.00
2018-03-08T16:01:11.625Z,11.20
2018-03-08T16:03:45.116Z,11.20
2018-03-08T16:19:48.292Z,11.10
2018-03-08T16:22:21.869Z,10.70
2018-03-08T16:24:55.415Z,10.70
2018-03-08T16:27:29.721Z,11.00
2018-03-08T16:30:04.185Z,11.00
2018-03-08T16:32:38.703Z,11.00
2018-03-08T16:35:13.222Z,11.00
2018-03-08T16:37:46.852Z,11.00
2018-03-08T16:40:20.425Z,11.00
2018-03-08T16:42:54.762Z,10.60
2018-03-08T16:45:28.462Z,10.60
2018-03-08T16:48:02.249Z,10.20
2018-03-08T16:50:35.802Z,10.10
2018-03-08T16:53:09.366Z,10.10
2018-03-08T16:55:43.179Z,10.20
2018-03-08T16:58:17.692Z,10.20
2018-03-08T17:00:52.038Z,10.10
2018-03-08T17:03:25.780Z,10.10
2018-03-08T17:05:59.432Z,10.10
2018-03-08T17:08:33.737Z,10.00
2018-03-08T17:11:08.147Z,9.90
2018-03-08T17:13:41.836Z,9.90
2018-03-08T17:16:15.501Z,9.80
2018-03-08T17:18:49.174Z,9.80
2018-03-08T17:21:22.666Z,9.70
2018-03-08T17:23:56.365Z,9.50
2018-03-08T17:26:29.957Z,9.20
2018-03-08T17:29:03.537Z,9.20
2018-03-08T17:31:37.066Z,9.10
2018-03-08T17:34:10.654Z,9.00
2018-03-08T17:36:44.314Z,8.90
2018-03-08T17:39:17.839Z,8.80
2018-03-08T17:41:51.376Z,8.70
2018-03-08T17:44:24.941Z,8.60
2018-03-08T17:46:58.489Z,8.50
2018-03-08T17:49:32.965Z,8.40
2018-03-08T17:52:06.577Z,8.40
2018-03-08T17:54:41.004Z,7.80
2018-03-08T17:57:14.714Z,7.80
2018-03-08T17:59:48.595Z,7.80
2018-03-08T18:02:22.100Z,7.70
2018-03-08T18:04:55.726Z,7.60
2018-03-08T18:07:29.301Z,7.30
2018-03-08T18:10:02.889Z,7.20
2018-03-08T18:12:37.419Z,7.20
2018-03-08T18:15:10.990Z,7.20
2018-03-08T18:17:44.629Z,7.00
2018-03-08T18:20:18.297Z,7.00
2018-03-08T18:22:51.966Z,6.90
2018-03-08T18:25:26.253Z,6.80
2018-03-08T18:28:00.763Z,6.80
2018-03-08T18:30:34.475Z,6.80
2018-03-08T18:33:08.165Z,6.70
2018-03-08T18:35:41.685Z,6.80
2018-03-08T18:38:15.309Z,6.80
2018-03-08T18:40:49.045Z,6.70
2018-03-08T18:43:22.813Z,6.80
2018-03-08T18:45:56.328Z,6.70
2018-03-08T18:48:29.896Z,6.60
2018-03-08T18:51:03.493Z,6.40
2018-03-08T18:53:37.026Z,6.30
2018-03-08T18:56:10.719Z,6.20
2018-03-08T18:58:44.347Z,6.10
2018-03-08T19:01:18.089Z,6.00
2018-03-08T19:03:51.710Z,5.90
2018-03-08T19:06:25.285Z,5.90
2018-03-08T19:08:59.002Z,5.90
2018-03-08T19:11:32.620Z,5.80
2018-03-08T19:14:06.211Z,5.60
2018-03-08T19:16:39.796Z,5.50
2018-03-08T19:19:13.331Z,5.30
2018-03-08T19:21:46.817Z,5.30
2018-03-08T19:24:20.418Z,5.20
2018-03-08T19:26:54.231Z,5.00
2018-03-08T19:29:27.782Z,4.90
2018-03-08T19:32:01.341Z,4.90
2018-03-08T19:34:34.902Z,4.90
2018-03-08T19:37:08.418Z,4.80
2018-03-08T19:39:41.992Z,4.40
2018-03-08T19:42:16.522Z,4.40
2018-03-08T19:44:50.116Z,4.40
2018-03-08T19:47:23.717Z,4.20
2018-03-08T19:49:57.327Z,4.20
2018-03-08T19:52:31.046Z,4.00
2018-03-08T19:55:04.565Z,4.00
2018-03-08T19:57:38.226Z,4.00
2018-03-08T20:00:11.928Z,3.90
2018-03-08T20:02:46.256Z,4.10
2018-03-08T20:05:20.080Z,4.00
2018-03-08T20:07:53.729Z,4.00
2018-03-08T20:10:27.426Z,3.90
2018-03-08T20:13:01.096Z,4.00
2018-03-08T20:15:34.688Z,4.00
2018-03-08T20:18:09.077Z,4.00
2018-03-08T20:20:42.616Z,4.00
2018-03-08T20:23:16.198Z,4.10
2018-03-08T20:25:49.860Z,4.10
2018-03-08T20:28:24.299Z,4.00
2018-03-08T20:30:57.818Z,4.00
2018-03-08T20:33:31.439Z,3.80
2018-03-08T20:36:05.724Z,4.00
2018-03-08T20:38:39.514Z,3.90
2018-03-08T20:41:13.246Z,4.00
2018-03-08T20:43:46.724Z,3.90
2018-03-08T20:46:21.042Z,3.90
2018-03-08T20:48:54.634Z,3.90
2018-03-08T20:51:28.156Z,3.80
2018-03-08T20:54:01.724Z,3.80
2018-03-08T20:56:36.875Z,3.80
2018-03-08T20:59:10.457Z,3.80
2018-03-08T21:01:44.009Z,3.70
2018-03-08T21:04:17.568Z,3.60
2018-03-08T21:06:51.107Z,3.70
2018-03-08T21:09:24.680Z,3.70
2018-03-08T21:11:58.310Z,3.70
2018-03-08T21:14:32.706Z,3.50
2018-03-08T21:17:07.253Z,3.50
2018-03-08T21:19:40.894Z,3.50
2018-03-08T21:22:14.687Z,3.50
2018-03-08T21:24:48.518Z,3.60
2018-03-08T21:27:22.313Z,3.70
2018-03-08T21:29:56.184Z,3.80
2018-03-08T21:32:30.741Z,3.80
2018-03-08T21:35:04.446Z,3.80
2018-03-08T21:37:38.165Z,3.70
2018-03-08T21:40:11.966Z,3.60
2018-03-08T21:42:45.779Z,3.40
2018-03-08T21:45:19.502Z,3.40
2018-03-08T21:47:53.103Z,3.40
2018-03-08T21:50:26.646Z,3.40
2018-03-08T21:53:00.536Z,3.20
2018-03-08T21:55:34.197Z,3.10
2018-03-08T21:58:07.960Z,2.10
2018-03-08T22:00:41.687Z,1.70
2018-03-08T22:03:15.462Z,2.00
2018-03-08T22:05:49.090Z,2.30
2018-03-08T22:08:22.844Z,2.60
2018-03-08T22:10:56.597Z,2.70
2018-03-08T22:13:31.052Z,2.80
2018-03-08T22:16:05.517Z,2.70
2018-03-08T22:18:39.162Z,2.70
2018-03-08T22:21:13.706Z,2.60
2018-03-08T22:23:47.348Z,2.60
2018-03-08T22:26:20.911Z,2.70
2018-03-08T22:28:54.493Z,2.60
2018-03-08T22:31:28.090Z,2.50
2018-03-08T22:34:01.575Z,2.50
2018-03-08T22:36:35.216Z,2.50
2018-03-08T22:39:08.762Z,2.50
2018-03-08T22:41:42.284Z,2.50
2018-03-08T22:44:15.795Z,2.40
2018-03-08T22:46:49.392Z,2.40
2018-03-08T22:49:22.975Z,2.00
2018-03-08T22:51:56.540Z,2.20
2018-03-08T22:54:30.217Z,2.30
2018-03-08T22:57:03.861Z,2.40
2018-03-08T22:59:37.621Z,2.50
2018-03-08T23:02:11.194Z,2.50
2018-03-08T23:04:45.528Z,2.60
2018-03-08T23:07:19.252Z,2.60
2018-03-08T23:09:52.923Z,2.60
2018-03-08T23:12:26.488Z,2.70
2018-03-08T23:15:00.029Z,2.90
2018-03-08T23:17:34.363Z,2.90
2018-03-08T23:20:08.857Z,2.80
2018-03-08T23:22:43.189Z,2.80
2018-03-08T23:25:16.903Z,2.70
2018-03-08T23:27:50.443Z,2.80
2018-03-08T23:30:24.072Z,2.80
2018-03-08T23:32:57.683Z,2.90
2018-03-08T23:35:31.392Z,2.80
2018-03-08T23:38:05.001Z,2.70
2018-03-08T23:40:38.601Z,2.70
2018-03-08T23:43:12.125Z,2.80
2018-03-08T23:45:46.570Z,2.50
2018-03-08T23:48:20.256Z,2.40
2018-03-08T23:50:54.622Z,2.50
2018-03-08T23:53:28.225Z,2.50
2018-03-08T23:56:02.338Z,2.40
2018-03-08T23:58:36.778Z,2.60
